Manawanui Hmnzs — ZMLR — position and weather

sailwx.info

Track history (hours):
 
Tides and Currents Weather Stations Pressure Air Temp Water Temp Dewpoint Dewpoint Depression Visibility Wind Speed Wind Dir Waves Ship Positions

Manawanui Hmnzs

Last reported at 2017-Jun-21 22:46 UTC. Time now 2017-Jun-23 00:10 UTC.
Position S 36°50' E 174°47'.

MMSI: 512000300.

Date/timePositionNaut miles runAvg speedWind from/ knotsBaromVisibWave heightAir tempDewpointWater temp
2017-Jun-21 22:46S 36°50' E 174°47'2 7.3
2017-Jun-21 22:26S 36°50' E 174°50'7 0.5
2017-Jun-21 08:56S 36°46' E 174°57'4 8.1
2017-Jun-21 08:27S 36°43' E 174°54'6 9.3
2017-Jun-21 07:50S 36°47' E 174°48'3 6.1
2017-Jun-21 07:17S 36°50' E 174°48'2 7.3
2017-Jun-21 06:58S 36°49' E 174°50'4 7.7
2017-Jun-21 06:30S 36°45' E 174°50'5 9.6
2017-Jun-21 05:59S 36°40' E 174°51'5 9.8
2017-Jun-21 05:30S 36°36' E 174°52'4 8.2
2017-Jun-21 05:00S 36°33' E 174°48'2 4.5
2017-Jun-21 04:30S 36°31' E 174°46'4 7.9
2017-Jun-21 04:00S 36°29' E 174°50'3 6.6
2017-Jun-21 03:29S 36°26' E 174°48'3 5.9
2017-Jun-21 03:00S 36°23' E 174°49'2 4.0
2017-Jun-21 02:29S 36°25' E 174°48'13 0.3
2017-Jun-19 00:18S 36°38' E 174°50'3 9.5
2017-Jun-19 00:00S 36°40' E 174°48'5 6.8
2017-Jun-18 23:17S 36°45' E 174°48'2 5.4
2017-Jun-18 22:55S 36°47' E 174°48'  
2017-Jun-16 02:47S 36°50' E 174°47'1 3.4
2017-Jun-16 02:30S 36°50' E 174°48'2 4.5
2017-Jun-16 02:00S 36°48' E 174°49'3 5.3
2017-Jun-16 01:30S 36°46' E 174°49'1 1.0
2017-Jun-16 00:55S 36°45' E 174°49'3 7.2
2017-Jun-16 00:30S 36°42' E 174°48'4 0.2
2017-Jun-15 07:23S 36°46' E 174°49'3 8.8
2017-Jun-15 07:00S 36°49' E 174°50'0 0.5
2017-Jun-15 06:30S 36°50' E 174°50'4 9.0
2017-Jun-15 06:00S 36°45' E 174°50'16 1.6
2017-Jun-14 19:55S 36°29' E 174°50'17 1.4
2017-Jun-14 07:50S 36°46' E 174°49'3 8.1
2017-Jun-14 07:26S 36°49' E 174°50'1 1.2
2017-Jun-14 06:30S 36°50' E 174°49'5 0.7
2017-Jun-13 23:25S 36°45' E 174°49'4 7.4
2017-Jun-13 22:54S 36°49' E 174°50'2 3.9
2017-Jun-13 22:16S 36°50' E 174°47'2 8.5
2017-Jun-13 22:00S 36°50' E 174°50'4 8.3
2017-Jun-13 21:30S 36°45' E 174°50'2 4.5
2017-Jun-13 21:00S 36°44' E 174°48'1 2.0
2017-Jun-13 20:30S 36°45' E 174°48'4 7.5
2017-Jun-13 20:00S 36°48' E 174°49'2 2.5
2017-Jun-13 19:05S 36°50' E 174°48'2 9.4
2017-Jun-13 18:52S 36°49' E 174°50'4 0.4
2017-Jun-13 10:08S 36°46' E 174°49'0 2.6
2017-Jun-13 10:00S 36°45' E 174°50'2 4.4
2017-Jun-13 09:30S 36°43' E 174°50'510.4
2017-Jun-13 09:00S 36°39' E 174°53'2 4.3
2017-Jun-13 08:30S 36°39' E 174°51'2 4.1
2017-Jun-13 08:00S 36°38' E 174°53'0 0.4
2017-Jun-13 07:20S 36°38' E 174°53'2 5.3
2017-Jun-13 07:00S 36°38' E 174°55'5 9.5
2017-Jun-13 06:30S 36°42' E 174°51'5 8.7
2017-Jun-13 05:57S 36°46' E 174°48'0 0.7
2017-Jun-13 05:30S 36°45' E 174°48'4 6.6
2017-Jun-13 04:55S 36°49' E 174°50'  
Track history (hours):
 
Tides and Currents Weather Stations Pressure Air Temp Water Temp Dewpoint Dewpoint Depression Visibility Wind Speed Wind Dir Waves Ship Positions

Manawanui Hmnzs

Last reported at 2017-Jun-21 22:46 UTC. Time now 2017-Jun-23 00:10 UTC.
Position S 36°50' E 174°47'.

MMSI: 512000300.

Date/timePositionNaut miles runAvg speedWind from/ knotsBaromVisibWave heightAir tempDewpointWater temp
2017-Jun-21 22:46S 36°50' E 174°47'2 7.3
2017-Jun-21 22:26S 36°50' E 174°50'7 0.5
2017-Jun-21 08:56S 36°46' E 174°57'4 8.1
2017-Jun-21 08:27S 36°43' E 174°54'6 9.3
2017-Jun-21 07:50S 36°47' E 174°48'3 6.1
2017-Jun-21 07:17S 36°50' E 174°48'2 7.3
2017-Jun-21 06:58S 36°49' E 174°50'4 7.7
2017-Jun-21 06:30S 36°45' E 174°50'5 9.6
2017-Jun-21 05:59S 36°40' E 174°51'5 9.8
2017-Jun-21 05:30S 36°36' E 174°52'4 8.2
2017-Jun-21 05:00S 36°33' E 174°48'2 4.5
2017-Jun-21 04:30S 36°31' E 174°46'4 7.9
2017-Jun-21 04:00S 36°29' E 174°50'3 6.6
2017-Jun-21 03:29S 36°26' E 174°48'3 5.9
2017-Jun-21 03:00S 36°23' E 174°49'2 4.0
2017-Jun-21 02:29S 36°25' E 174°48'13 0.3
2017-Jun-19 00:18S 36°38' E 174°50'3 9.5
2017-Jun-19 00:00S 36°40' E 174°48'5 6.8
2017-Jun-18 23:17S 36°45' E 174°48'2 5.4
2017-Jun-18 22:55S 36°47' E 174°48'  
2017-Jun-16 02:47S 36°50' E 174°47'1 3.4
2017-Jun-16 02:30S 36°50' E 174°48'2 4.5
2017-Jun-16 02:00S 36°48' E 174°49'3 5.3
2017-Jun-16 01:30S 36°46' E 174°49'1 1.0
2017-Jun-16 00:55S 36°45' E 174°49'3 7.2
2017-Jun-16 00:30S 36°42' E 174°48'4 0.2
2017-Jun-15 07:23S 36°46' E 174°49'3 8.8
2017-Jun-15 07:00S 36°49' E 174°50'0 0.5
2017-Jun-15 06:30S 36°50' E 174°50'4 9.0
2017-Jun-15 06:00S 36°45' E 174°50'16 1.6
2017-Jun-14 19:55S 36°29' E 174°50'17 1.4
2017-Jun-14 07:50S 36°46' E 174°49'3 8.1
2017-Jun-14 07:26S 36°49' E 174°50'1 1.2
2017-Jun-14 06:30S 36°50' E 174°49'5 0.7
2017-Jun-13 23:25S 36°45' E 174°49'4 7.4
2017-Jun-13 22:54S 36°49' E 174°50'2 3.9
2017-Jun-13 22:16S 36°50' E 174°47'2 8.5
2017-Jun-13 22:00S 36°50' E 174°50'4 8.3
2017-Jun-13 21:30S 36°45' E 174°50'2 4.5
2017-Jun-13 21:00S 36°44' E 174°48'1 2.0
2017-Jun-13 20:30S 36°45' E 174°48'4 7.5
2017-Jun-13 20:00S 36°48' E 174°49'2 2.5
2017-Jun-13 19:05S 36°50' E 174°48'2 9.4
2017-Jun-13 18:52S 36°49' E 174°50'4 0.4
2017-Jun-13 10:08S 36°46' E 174°49'0 2.6
2017-Jun-13 10:00S 36°45' E 174°50'2 4.4
2017-Jun-13 09:30S 36°43' E 174°50'510.4
2017-Jun-13 09:00S 36°39' E 174°53'2 4.3
2017-Jun-13 08:30S 36°39' E 174°51'2 4.1
2017-Jun-13 08:00S 36°38' E 174°53'0 0.4
2017-Jun-13 07:20S 36°38' E 174°53'2 5.3
2017-Jun-13 07:00S 36°38' E 174°55'5 9.5
2017-Jun-13 06:30S 36°42' E 174°51'5 8.7
2017-Jun-13 05:57S 36°46' E 174°48'0 0.7
2017-Jun-13 05:30S 36°45' E 174°48'4 6.6
2017-Jun-13 04:55S 36°49' E 174°50'  

Dump ship's entire track history